sensor_id;sensor_type;location;lat;lon;timestamp;P1;durP1;ratioP1;P2;durP2;ratioP2
72728;SDS011;60843;52.062;4.508;2023-04-08T00:01:03;27.70;;;11.25;;
72728;SDS011;60843;52.062;4.508;2023-04-08T00:03:29;26.02;;;11.95;;
72728;SDS011;60843;52.062;4.508;2023-04-08T00:05:54;29.83;;;11.90;;
72728;SDS011;60843;52.062;4.508;2023-04-08T00:08:20;28.20;;;11.88;;
72728;SDS011;60843;52.062;4.508;2023-04-08T00:10:45;28.47;;;12.90;;
72728;SDS011;60843;52.062;4.508;2023-04-08T00:13:11;31.83;;;12.82;;
72728;SDS011;60843;52.062;4.508;2023-04-08T00:15:37;31.90;;;13.00;;
72728;SDS011;60843;52.062;4.508;2023-04-08T00:18:02;28.55;;;12.00;;
72728;SDS011;60843;52.062;4.508;2023-04-08T00:20:28;30.50;;;13.05;;
72728;SDS011;60843;52.062;4.508;2023-04-08T00:22:55;33.92;;;13.63;;
72728;SDS011;60843;52.062;4.508;2023-04-08T00:25:20;38.58;;;13.52;;
72728;SDS011;60843;52.062;4.508;2023-04-08T00:27:46;31.65;;;13.25;;
72728;SDS011;60843;52.062;4.508;2023-04-08T00:30:11;30.00;;;13.23;;
72728;SDS011;60843;52.062;4.508;2023-04-08T00:32:40;35.70;;;14.23;;
72728;SDS011;60843;52.062;4.508;2023-04-08T00:35:05;38.47;;;14.45;;
72728;SDS011;60843;52.062;4.508;2023-04-08T00:37:31;34.03;;;13.25;;
72728;SDS011;60843;52.062;4.508;2023-04-08T00:39:57;33.80;;;13.20;;
72728;SDS011;60843;52.062;4.508;2023-04-08T00:42:22;34.25;;;13.70;;
72728;SDS011;60843;52.062;4.508;2023-04-08T00:44:48;39.00;;;12.82;;
72728;SDS011;60843;52.062;4.508;2023-04-08T00:47:13;31.15;;;13.68;;
72728;SDS011;60843;52.062;4.508;2023-04-08T00:49:40;34.65;;;13.80;;
72728;SDS011;60843;52.062;4.508;2023-04-08T00:52:06;33.78;;;13.10;;
72728;SDS011;60843;52.062;4.508;2023-04-08T00:54:31;32.90;;;14.15;;
72728;SDS011;60843;52.062;4.508;2023-04-08T00:56:57;35.00;;;14.45;;
72728;SDS011;60843;52.062;4.508;2023-04-08T00:59:25;35.08;;;15.48;;
72728;SDS011;60843;52.062;4.508;2023-04-08T01:12:03;34.58;;;13.48;;
72728;SDS011;60843;52.062;4.508;2023-04-08T01:16:56;33.70;;;12.43;;
72728;SDS011;60843;52.062;4.508;2023-04-08T01:19:26;37.95;;;13.00;;
72728;SDS011;60843;52.062;4.508;2023-04-08T01:21:54;39.72;;;14.43;;
72728;SDS011;60843;52.062;4.508;2023-04-08T01:24:28;48.28;;;15.82;;
72728;SDS011;60843;52.062;4.508;2023-04-08T01:26:55;38.35;;;14.60;;
72728;SDS011;60843;52.062;4.508;2023-04-08T01:29:23;41.22;;;15.30;;
72728;SDS011;60843;52.062;4.508;2023-04-08T01:31:50;35.28;;;14.05;;
72728;SDS011;60843;52.062;4.508;2023-04-08T01:34:18;37.08;;;14.75;;
72728;SDS011;60843;52.062;4.508;2023-04-08T01:36:44;40.50;;;15.25;;
72728;SDS011;60843;52.062;4.508;2023-04-08T01:39:11;38.08;;;14.45;;
72728;SDS011;60843;52.062;4.508;2023-04-08T01:41:38;40.70;;;15.52;;
72728;SDS011;60843;52.062;4.508;2023-04-08T01:44:04;45.33;;;15.82;;
72728;SDS011;60843;52.062;4.508;2023-04-08T01:46:30;46.15;;;15.10;;
72728;SDS011;60843;52.062;4.508;2023-04-08T01:48:56;42.97;;;14.98;;
72728;SDS011;60843;52.062;4.508;2023-04-08T01:51:23;39.90;;;15.05;;
72728;SDS011;60843;52.062;4.508;2023-04-08T01:53:51;41.78;;;14.77;;
72728;SDS011;60843;52.062;4.508;2023-04-08T01:56:16;45.55;;;14.82;;
72728;SDS011;60843;52.062;4.508;2023-04-08T01:58:46;41.67;;;14.85;;
72728;SDS011;60843;52.062;4.508;2023-04-08T02:01:16;43.30;;;15.73;;
72728;SDS011;60843;52.062;4.508;2023-04-08T02:03:43;38.42;;;14.45;;
72728;SDS011;60843;52.062;4.508;2023-04-08T02:06:09;43.10;;;14.55;;
72728;SDS011;60843;52.062;4.508;2023-04-08T02:08:35;43.42;;;15.45;;
72728;SDS011;60843;52.062;4.508;2023-04-08T02:11:01;46.22;;;14.77;;
72728;SDS011;60843;52.062;4.508;2023-04-08T02:13:29;44.70;;;15.45;;
72728;SDS011;60843;52.062;4.508;2023-04-08T02:16:29;48.40;;;15.13;;
72728;SDS011;60843;52.062;4.508;2023-04-08T02:18:58;45.42;;;15.77;;
72728;SDS011;60843;52.062;4.508;2023-04-08T02:21:30;47.05;;;14.90;;
72728;SDS011;60843;52.062;4.508;2023-04-08T02:23:58;42.05;;;16.10;;
72728;SDS011;60843;52.062;4.508;2023-04-08T02:26:24;47.83;;;15.48;;
72728;SDS011;60843;52.062;4.508;2023-04-08T02:28:51;41.40;;;16.23;;
72728;SDS011;60843;52.062;4.508;2023-04-08T02:31:17;37.83;;;14.25;;
72728;SDS011;60843;52.062;4.508;2023-04-08T02:33:43;44.60;;;15.10;;
72728;SDS011;60843;52.062;4.508;2023-04-08T02:36:10;44.00;;;15.23;;
72728;SDS011;60843;52.062;4.508;2023-04-08T02:38:36;44.65;;;15.63;;
72728;SDS011;60843;52.062;4.508;2023-04-08T02:41:02;42.05;;;15.57;;
72728;SDS011;60843;52.062;4.508;2023-04-08T02:43:27;47.35;;;16.25;;
72728;SDS011;60843;52.062;4.508;2023-04-08T02:45:56;44.80;;;15.63;;
72728;SDS011;60843;52.062;4.508;2023-04-08T02:48:23;47.90;;;16.08;;
72728;SDS011;60843;52.062;4.508;2023-04-08T02:50:48;47.22;;;15.80;;
72728;SDS011;60843;52.062;4.508;2023-04-08T02:53:14;40.83;;;15.47;;
72728;SDS011;60843;52.062;4.508;2023-04-08T02:55:40;45.25;;;16.40;;
72728;SDS011;60843;52.062;4.508;2023-04-08T02:58:05;44.33;;;15.75;;
72728;SDS011;60843;52.062;4.508;2023-04-08T03:00:30;47.03;;;14.63;;
72728;SDS011;60843;52.062;4.508;2023-04-08T03:02:56;46.33;;;16.05;;
72728;SDS011;60843;52.062;4.508;2023-04-08T03:05:21;46.80;;;15.80;;
72728;SDS011;60843;52.062;4.508;2023-04-08T03:07:47;53.88;;;16.50;;
72728;SDS011;60843;52.062;4.508;2023-04-08T03:10:12;44.47;;;15.05;;
72728;SDS011;60843;52.062;4.508;2023-04-08T03:12:38;47.95;;;15.02;;
72728;SDS011;60843;52.062;4.508;2023-04-08T03:15:03;43.33;;;15.63;;
72728;SDS011;60843;52.062;4.508;2023-04-08T03:17:30;49.20;;;15.65;;
72728;SDS011;60843;52.062;4.508;2023-04-08T03:19:57;47.33;;;15.93;;
72728;SDS011;60843;52.062;4.508;2023-04-08T03:22:23;50.17;;;16.10;;
72728;SDS011;60843;52.062;4.508;2023-04-08T03:24:48;49.00;;;15.25;;
72728;SDS011;60843;52.062;4.508;2023-04-08T03:27:14;47.95;;;15.77;;
72728;SDS011;60843;52.062;4.508;2023-04-08T03:29:39;48.03;;;16.13;;
72728;SDS011;60843;52.062;4.508;2023-04-08T03:32:07;42.30;;;15.15;;
72728;SDS011;60843;52.062;4.508;2023-04-08T03:34:35;49.15;;;15.10;;
72728;SDS011;60843;52.062;4.508;2023-04-08T03:39:26;38.17;;;13.47;;
72728;SDS011;60843;52.062;4.508;2023-04-08T03:41:52;47.92;;;15.85;;
72728;SDS011;60843;52.062;4.508;2023-04-08T03:44:17;48.80;;;15.87;;
72728;SDS011;60843;52.062;4.508;2023-04-08T03:46:42;52.57;;;16.50;;
72728;SDS011;60843;52.062;4.508;2023-04-08T03:49:08;50.78;;;15.25;;
72728;SDS011;60843;52.062;4.508;2023-04-08T03:51:34;47.15;;;15.52;;
72728;SDS011;60843;52.062;4.508;2023-04-08T03:54:00;46.03;;;15.73;;
72728;SDS011;60843;52.062;4.508;2023-04-08T03:56:25;44.22;;;15.88;;
72728;SDS011;60843;52.062;4.508;2023-04-08T03:58:50;43.20;;;14.87;;
72728;SDS011;60843;52.062;4.508;2023-04-08T04:01:16;40.00;;;14.18;;
72728;SDS011;60843;52.062;4.508;2023-04-08T04:06:11;68.50;;;15.85;;
72728;SDS011;60843;52.062;4.508;2023-04-08T04:08:36;63.90;;;15.02;;
72728;SDS011;60843;52.062;4.508;2023-04-08T04:11:01;41.23;;;13.57;;
72728;SDS011;60843;52.062;4.508;2023-04-08T04:13:27;57.03;;;13.93;;
72728;SDS011;60843;52.062;4.508;2023-04-08T04:15:52;84.93;;;14.75;;
72728;SDS011;60843;52.062;4.508;2023-04-08T04:18:18;67.10;;;11.82;;
72728;SDS011;60843;52.062;4.508;2023-04-08T04:20:43;106.90;;;17.27;;
72728;SDS011;60843;52.062;4.508;2023-04-08T04:23:08;93.22;;;17.02;;
72728;SDS011;60843;52.062;4.508;2023-04-08T04:25:34;123.97;;;16.77;;
72728;SDS011;60843;52.062;4.508;2023-04-08T04:27:59;120.93;;;15.03;;
72728;SDS011;60843;52.062;4.508;2023-04-08T04:30:26;130.02;;;16.85;;
72728;SDS011;60843;52.062;4.508;2023-04-08T04:32:52;118.43;;;16.00;;
72728;SDS011;60843;52.062;4.508;2023-04-08T04:35:23;152.77;;;18.88;;
72728;SDS011;60843;52.062;4.508;2023-04-08T04:37:49;78.05;;;15.65;;
72728;SDS011;60843;52.062;4.508;2023-04-08T04:40:15;97.82;;;16.33;;
72728;SDS011;60843;52.062;4.508;2023-04-08T04:42:41;44.40;;;13.85;;
72728;SDS011;60843;52.062;4.508;2023-04-08T04:45:06;77.90;;;13.95;;
72728;SDS011;60843;52.062;4.508;2023-04-08T04:47:33;58.55;;;13.50;;
72728;SDS011;60843;52.062;4.508;2023-04-08T04:49:59;82.20;;;14.33;;
72728;SDS011;60843;52.062;4.508;2023-04-08T04:52:25;141.00;;;16.15;;
72728;SDS011;60843;52.062;4.508;2023-04-08T04:54:50;78.55;;;11.05;;
72728;SDS011;60843;52.062;4.508;2023-04-08T04:57:18;146.37;;;14.03;;
72728;SDS011;60843;52.062;4.508;2023-04-08T04:59:43;80.90;;;13.30;;
72728;SDS011;60843;52.062;4.508;2023-04-08T05:02:08;98.93;;;14.30;;
72728;SDS011;60843;52.062;4.508;2023-04-08T05:04:34;133.48;;;15.27;;
72728;SDS011;60843;52.062;4.508;2023-04-08T05:07:00;171.90;;;17.85;;
72728;SDS011;60843;52.062;4.508;2023-04-08T05:09:25;127.30;;;16.33;;
72728;SDS011;60843;52.062;4.508;2023-04-08T05:11:50;175.47;;;16.10;;
72728;SDS011;60843;52.062;4.508;2023-04-08T05:14:16;116.30;;;15.00;;
72728;SDS011;60843;52.062;4.508;2023-04-08T05:16:41;273.88;;;19.75;;
72728;SDS011;60843;52.062;4.508;2023-04-08T05:19:07;149.35;;;15.02;;
72728;SDS011;60843;52.062;4.508;2023-04-08T05:21:32;188.20;;;15.07;;
72728;SDS011;60843;52.062;4.508;2023-04-08T05:23:57;165.30;;;16.07;;
72728;SDS011;60843;52.062;4.508;2023-04-08T05:26:23;120.43;;;13.40;;
72728;SDS011;60843;52.062;4.508;2023-04-08T05:28:49;180.25;;;17.98;;
72728;SDS011;60843;52.062;4.508;2023-04-08T05:31:17;163.85;;;16.70;;
72728;SDS011;60843;52.062;4.508;2023-04-08T05:33:43;230.18;;;18.67;;
72728;SDS011;60843;52.062;4.508;2023-04-08T05:36:09;206.18;;;20.13;;
72728;SDS011;60843;52.062;4.508;2023-04-08T05:38:35;77.15;;;13.23;;
72728;SDS011;60843;52.062;4.508;2023-04-08T05:41:04;231.27;;;19.27;;
72728;SDS011;60843;52.062;4.508;2023-04-08T05:43:31;73.57;;;12.25;;
72728;SDS011;60843;52.062;4.508;2023-04-08T05:45:57;153.57;;;17.88;;
72728;SDS011;60843;52.062;4.508;2023-04-08T05:48:22;125.68;;;17.08;;
72728;SDS011;60843;52.062;4.508;2023-04-08T05:50:48;164.15;;;17.73;;
72728;SDS011;60843;52.062;4.508;2023-04-08T05:53:13;113.17;;;15.30;;
72728;SDS011;60843;52.062;4.508;2023-04-08T05:55:39;177.15;;;17.05;;
72728;SDS011;60843;52.062;4.508;2023-04-08T05:58:05;109.22;;;15.65;;
72728;SDS011;60843;52.062;4.508;2023-04-08T06:00:30;148.23;;;17.50;;
72728;SDS011;60843;52.062;4.508;2023-04-08T06:02:56;75.68;;;16.98;;
72728;SDS011;60843;52.062;4.508;2023-04-08T06:05:21;79.33;;;16.03;;
72728;SDS011;60843;52.062;4.508;2023-04-08T06:07:47;53.55;;;16.65;;
72728;SDS011;60843;52.062;4.508;2023-04-08T06:10:13;55.38;;;16.10;;
72728;SDS011;60843;52.062;4.508;2023-04-08T06:12:38;59.50;;;17.92;;
72728;SDS011;60843;52.062;4.508;2023-04-08T06:15:04;55.67;;;17.97;;
72728;SDS011;60843;52.062;4.508;2023-04-08T06:17:36;59.20;;;17.05;;
72728;SDS011;60843;52.062;4.508;2023-04-08T06:20:02;58.88;;;17.95;;
72728;SDS011;60843;52.062;4.508;2023-04-08T06:22:29;59.25;;;16.83;;
72728;SDS011;60843;52.062;4.508;2023-04-08T06:24:54;47.45;;;16.70;;
72728;SDS011;60843;52.062;4.508;2023-04-08T06:27:20;48.47;;;16.92;;
72728;SDS011;60843;52.062;4.508;2023-04-08T06:29:45;48.03;;;16.00;;
72728;SDS011;60843;52.062;4.508;2023-04-08T06:32:11;41.30;;;16.03;;
72728;SDS011;60843;52.062;4.508;2023-04-08T06:34:37;42.25;;;16.30;;
72728;SDS011;60843;52.062;4.508;2023-04-08T06:37:03;45.42;;;16.75;;
72728;SDS011;60843;52.062;4.508;2023-04-08T06:39:28;47.33;;;16.75;;
72728;SDS011;60843;52.062;4.508;2023-04-08T06:41:53;46.73;;;16.70;;
72728;SDS011;60843;52.062;4.508;2023-04-08T06:44:19;36.67;;;14.70;;
72728;SDS011;60843;52.062;4.508;2023-04-08T06:46:45;39.75;;;17.17;;
72728;SDS011;60843;52.062;4.508;2023-04-08T06:49:11;38.00;;;15.13;;
72728;SDS011;60843;52.062;4.508;2023-04-08T06:51:37;35.78;;;14.80;;
72728;SDS011;60843;52.062;4.508;2023-04-08T06:54:02;36.23;;;15.13;;
72728;SDS011;60843;52.062;4.508;2023-04-08T06:56:27;35.90;;;15.73;;
72728;SDS011;60843;52.062;4.508;2023-04-08T06:58:53;33.57;;;15.07;;
72728;SDS011;60843;52.062;4.508;2023-04-08T07:01:18;30.73;;;13.57;;
72728;SDS011;60843;52.062;4.508;2023-04-08T07:03:43;34.17;;;15.07;;
72728;SDS011;60843;52.062;4.508;2023-04-08T07:06:09;34.10;;;14.00;;
72728;SDS011;60843;52.062;4.508;2023-04-08T07:08:34;35.33;;;14.88;;
72728;SDS011;60843;52.062;4.508;2023-04-08T07:11:00;33.03;;;14.55;;
72728;SDS011;60843;52.062;4.508;2023-04-08T07:13:26;36.08;;;14.07;;
72728;SDS011;60843;52.062;4.508;2023-04-08T07:15:51;33.45;;;14.00;;
72728;SDS011;60843;52.062;4.508;2023-04-08T07:18:17;36.43;;;13.93;;
72728;SDS011;60843;52.062;4.508;2023-04-08T07:20:42;98.18;;;38.17;;
72728;SDS011;60843;52.062;4.508;2023-04-08T07:23:08;43.07;;;14.47;;
72728;SDS011;60843;52.062;4.508;2023-04-08T07:25:33;43.40;;;12.35;;
72728;SDS011;60843;52.062;4.508;2023-04-08T07:27:59;45.38;;;11.63;;
72728;SDS011;60843;52.062;4.508;2023-04-08T07:30:25;56.58;;;13.57;;
72728;SDS011;60843;52.062;4.508;2023-04-08T07:32:50;35.28;;;9.70;;
72728;SDS011;60843;52.062;4.508;2023-04-08T07:35:16;90.50;;;13.23;;
72728;SDS011;60843;52.062;4.508;2023-04-08T07:37:48;42.67;;;12.48;;
72728;SDS011;60843;52.062;4.508;2023-04-08T07:40:13;29.75;;;9.98;;
72728;SDS011;60843;52.062;4.508;2023-04-08T07:42:39;59.55;;;11.90;;
72728;SDS011;60843;52.062;4.508;2023-04-08T07:45:04;33.20;;;12.10;;
72728;SDS011;60843;52.062;4.508;2023-04-08T07:47:30;82.32;;;13.00;;
72728;SDS011;60843;52.062;4.508;2023-04-08T07:49:55;58.40;;;12.60;;
72728;SDS011;60843;52.062;4.508;2023-04-08T07:52:21;40.37;;;10.30;;
72728;SDS011;60843;52.062;4.508;2023-04-08T07:54:46;71.57;;;12.10;;
72728;SDS011;60843;52.062;4.508;2023-04-08T07:57:12;98.70;;;12.18;;
72728;SDS011;60843;52.062;4.508;2023-04-08T07:59:37;27.00;;;7.87;;
72728;SDS011;60843;52.062;4.508;2023-04-08T08:02:03;95.93;;;23.20;;
72728;SDS011;60843;52.062;4.508;2023-04-08T08:04:28;54.27;;;9.53;;
72728;SDS011;60843;52.062;4.508;2023-04-08T08:06:53;73.00;;;11.60;;
72728;SDS011;60843;52.062;4.508;2023-04-08T08:09:19;35.00;;;9.88;;
72728;SDS011;60843;52.062;4.508;2023-04-08T08:11:44;39.50;;;10.50;;
72728;SDS011;60843;52.062;4.508;2023-04-08T08:14:10;41.57;;;10.13;;
72728;SDS011;60843;52.062;4.508;2023-04-08T08:16:37;27.27;;;8.73;;
72728;SDS011;60843;52.062;4.508;2023-04-08T08:19:03;20.80;;;8.45;;
72728;SDS011;60843;52.062;4.508;2023-04-08T08:21:31;43.92;;;10.10;;
72728;SDS011;60843;52.062;4.508;2023-04-08T08:23:57;22.38;;;10.18;;
72728;SDS011;60843;52.062;4.508;2023-04-08T08:26:23;19.17;;;9.52;;
72728;SDS011;60843;52.062;4.508;2023-04-08T08:28:49;20.45;;;9.70;;
72728;SDS011;60843;52.062;4.508;2023-04-08T08:31:15;19.92;;;9.93;;
72728;SDS011;60843;52.062;4.508;2023-04-08T08:33:40;32.58;;;10.70;;
72728;SDS011;60843;52.062;4.508;2023-04-08T08:36:05;21.35;;;10.57;;
72728;SDS011;60843;52.062;4.508;2023-04-08T08:38:31;19.45;;;10.02;;
72728;SDS011;60843;52.062;4.508;2023-04-08T08:40:57;29.95;;;13.30;;
72728;SDS011;60843;52.062;4.508;2023-04-08T08:43:24;20.42;;;9.90;;
72728;SDS011;60843;52.062;4.508;2023-04-08T08:45:50;24.00;;;10.50;;
72728;SDS011;60843;52.062;4.508;2023-04-08T08:48:15;22.15;;;10.82;;
72728;SDS011;60843;52.062;4.508;2023-04-08T08:50:41;19.23;;;10.63;;
72728;SDS011;60843;52.062;4.508;2023-04-08T08:53:07;21.70;;;11.05;;
72728;SDS011;60843;52.062;4.508;2023-04-08T08:55:32;20.67;;;11.50;;
72728;SDS011;60843;52.062;4.508;2023-04-08T08:57:58;21.23;;;12.45;;
72728;SDS011;60843;52.062;4.508;2023-04-08T09:00:34;23.08;;;12.38;;
72728;SDS011;60843;52.062;4.508;2023-04-08T09:03:16;24.70;;;12.75;;
72728;SDS011;60843;52.062;4.508;2023-04-08T09:05:50;33.92;;;16.58;;
72728;SDS011;60843;52.062;4.508;2023-04-08T09:08:29;27.52;;;14.73;;
72728;SDS011;60843;52.062;4.508;2023-04-08T09:11:09;33.30;;;16.58;;
72728;SDS011;60843;52.062;4.508;2023-04-08T09:13:42;28.92;;;15.60;;
72728;SDS011;60843;52.062;4.508;2023-04-08T09:16:08;28.13;;;14.13;;
72728;SDS011;60843;52.062;4.508;2023-04-08T09:18:42;33.45;;;16.13;;
72728;SDS011;60843;52.062;4.508;2023-04-08T09:21:08;29.83;;;15.18;;
72728;SDS011;60843;52.062;4.508;2023-04-08T09:26:09;28.42;;;16.10;;
72728;SDS011;60843;52.062;4.508;2023-04-08T09:28:43;27.08;;;15.40;;
72728;SDS011;60843;52.062;4.508;2023-04-08T09:31:28;28.98;;;15.52;;
72728;SDS011;60843;52.062;4.508;2023-04-08T09:34:16;24.00;;;13.18;;
72728;SDS011;60843;52.062;4.508;2023-04-08T09:36:42;23.95;;;12.55;;
72728;SDS011;60843;52.062;4.508;2023-04-08T09:39:08;25.17;;;14.07;;
72728;SDS011;60843;52.062;4.508;2023-04-08T09:41:35;23.63;;;12.75;;
72728;SDS011;60843;52.062;4.508;2023-04-08T09:49:28;21.95;;;12.38;;
72728;SDS011;60843;52.062;4.508;2023-04-08T09:54:46;23.45;;;13.10;;
72728;SDS011;60843;52.062;4.508;2023-04-08T09:57:27;20.83;;;12.30;;
72728;SDS011;60843;52.062;4.508;2023-04-08T10:00:07;18.95;;;11.98;;
72728;SDS011;60843;52.062;4.508;2023-04-08T10:05:49;18.85;;;11.85;;
72728;SDS011;60843;52.062;4.508;2023-04-08T10:08:17;17.85;;;11.13;;
72728;SDS011;60843;52.062;4.508;2023-04-08T10:10:42;21.77;;;11.98;;
72728;SDS011;60843;52.062;4.508;2023-04-08T10:13:08;18.15;;;10.82;;
72728;SDS011;60843;52.062;4.508;2023-04-08T10:15:34;17.90;;;10.10;;
72728;SDS011;60843;52.062;4.508;2023-04-08T10:25:31;19.98;;;11.65;;
72728;SDS011;60843;52.062;4.508;2023-04-08T10:28:01;19.02;;;10.40;;
72728;SDS011;60843;52.062;4.508;2023-04-08T10:38:30;16.80;;;9.23;;
72728;SDS011;60843;52.062;4.508;2023-04-08T10:40:57;15.77;;;9.00;;
72728;SDS011;60843;52.062;4.508;2023-04-08T10:43:22;18.42;;;9.27;;
72728;SDS011;60843;52.062;4.508;2023-04-08T10:45:50;16.50;;;10.07;;
72728;SDS011;60843;52.062;4.508;2023-04-08T10:48:18;15.27;;;9.88;;
72728;SDS011;60843;52.062;4.508;2023-04-08T10:50:53;16.13;;;9.55;;
72728;SDS011;60843;52.062;4.508;2023-04-08T10:53:37;17.65;;;9.27;;
72728;SDS011;60843;52.062;4.508;2023-04-08T10:56:10;15.32;;;9.80;;
72728;SDS011;60843;52.062;4.508;2023-04-08T10:58:47;15.27;;;8.57;;
72728;SDS011;60843;52.062;4.508;2023-04-08T11:01:13;14.18;;;8.88;;
72728;SDS011;60843;52.062;4.508;2023-04-08T11:03:40;14.68;;;9.10;;
72728;SDS011;60843;52.062;4.508;2023-04-08T11:06:06;16.67;;;9.38;;
72728;SDS011;60843;52.062;4.508;2023-04-08T11:08:32;15.10;;;9.00;;
72728;SDS011;60843;52.062;4.508;2023-04-08T11:11:00;16.13;;;8.40;;
72728;SDS011;60843;52.062;4.508;2023-04-08T11:13:26;13.90;;;7.80;;
72728;SDS011;60843;52.062;4.508;2023-04-08T11:15:52;14.50;;;8.15;;
72728;SDS011;60843;52.062;4.508;2023-04-08T11:18:19;14.02;;;8.82;;
72728;SDS011;60843;52.062;4.508;2023-04-08T11:20:45;12.45;;;7.95;;
72728;SDS011;60843;52.062;4.508;2023-04-08T11:23:12;11.95;;;7.05;;
72728;SDS011;60843;52.062;4.508;2023-04-08T11:25:38;12.85;;;7.28;;
72728;SDS011;60843;52.062;4.508;2023-04-08T11:28:06;11.77;;;6.95;;
72728;SDS011;60843;52.062;4.508;2023-04-08T11:30:32;10.43;;;6.18;;
72728;SDS011;60843;52.062;4.508;2023-04-08T11:32:58;11.77;;;6.90;;
72728;SDS011;60843;52.062;4.508;2023-04-08T11:35:23;11.53;;;6.80;;
72728;SDS011;60843;52.062;4.508;2023-04-08T11:37:52;11.00;;;6.45;;
72728;SDS011;60843;52.062;4.508;2023-04-08T11:40:19;10.50;;;6.78;;
72728;SDS011;60843;52.062;4.508;2023-04-08T11:42:45;12.10;;;5.90;;
72728;SDS011;60843;52.062;4.508;2023-04-08T11:45:11;9.18;;;6.47;;
72728;SDS011;60843;52.062;4.508;2023-04-08T11:47:38;16.20;;;6.60;;
72728;SDS011;60843;52.062;4.508;2023-04-08T11:50:04;6.90;;;4.55;;
72728;SDS011;60843;52.062;4.508;2023-04-08T11:52:40;9.05;;;5.00;;
72728;SDS011;60843;52.062;4.508;2023-04-08T11:55:09;11.50;;;5.35;;
72728;SDS011;60843;52.062;4.508;2023-04-08T11:57:46;8.75;;;5.50;;
72728;SDS011;60843;52.062;4.508;2023-04-08T12:00:12;6.22;;;3.78;;
72728;SDS011;60843;52.062;4.508;2023-04-08T12:02:37;10.80;;;5.38;;
72728;SDS011;60843;52.062;4.508;2023-04-08T12:05:05;8.25;;;4.65;;
72728;SDS011;60843;52.062;4.508;2023-04-08T12:07:31;8.52;;;5.55;;
72728;SDS011;60843;52.062;4.508;2023-04-08T12:09:57;6.53;;;4.15;;
72728;SDS011;60843;52.062;4.508;2023-04-08T12:12:24;10.88;;;5.53;;
72728;SDS011;60843;52.062;4.508;2023-04-08T12:14:50;8.93;;;5.18;;
72728;SDS011;60843;52.062;4.508;2023-04-08T12:17:15;8.88;;;4.13;;
72728;SDS011;60843;52.062;4.508;2023-04-08T12:19:41;7.60;;;4.15;;
72728;SDS011;60843;52.062;4.508;2023-04-08T12:22:06;11.77;;;5.70;;
72728;SDS011;60843;52.062;4.508;2023-04-08T12:24:31;12.50;;;5.00;;
72728;SDS011;60843;52.062;4.508;2023-04-08T12:26:57;9.65;;;5.60;;
72728;SDS011;60843;52.062;4.508;2023-04-08T12:29:22;8.57;;;4.68;;
72728;SDS011;60843;52.062;4.508;2023-04-08T12:31:48;8.43;;;5.20;;
72728;SDS011;60843;52.062;4.508;2023-04-08T12:34:13;10.03;;;5.27;;
72728;SDS011;60843;52.062;4.508;2023-04-08T12:36:38;8.40;;;4.47;;
72728;SDS011;60843;52.062;4.508;2023-04-08T12:39:05;10.05;;;5.38;;
72728;SDS011;60843;52.062;4.508;2023-04-08T12:41:31;10.82;;;5.50;;
72728;SDS011;60843;52.062;4.508;2023-04-08T12:43:57;14.95;;;5.22;;
72728;SDS011;60843;52.062;4.508;2023-04-08T12:46:23;11.15;;;6.38;;
72728;SDS011;60843;52.062;4.508;2023-04-08T12:48:48;10.00;;;5.38;;
72728;SDS011;60843;52.062;4.508;2023-04-08T12:51:13;8.53;;;4.13;;
72728;SDS011;60843;52.062;4.508;2023-04-08T12:53:39;9.10;;;5.37;;
72728;SDS011;60843;52.062;4.508;2023-04-08T12:56:04;12.37;;;5.37;;
72728;SDS011;60843;52.062;4.508;2023-04-08T12:58:30;11.50;;;4.07;;
72728;SDS011;60843;52.062;4.508;2023-04-08T13:00:55;8.40;;;5.50;;
72728;SDS011;60843;52.062;4.508;2023-04-08T13:03:21;11.27;;;5.83;;
72728;SDS011;60843;52.062;4.508;2023-04-08T13:05:46;6.57;;;4.03;;
72728;SDS011;60843;52.062;4.508;2023-04-08T13:08:12;10.00;;;4.57;;
72728;SDS011;60843;52.062;4.508;2023-04-08T13:10:38;9.38;;;5.05;;
72728;SDS011;60843;52.062;4.508;2023-04-08T13:13:04;10.48;;;5.05;;
72728;SDS011;60843;52.062;4.508;2023-04-08T13:15:30;8.48;;;5.25;;
72728;SDS011;60843;52.062;4.508;2023-04-08T13:17:56;10.65;;;5.20;;
72728;SDS011;60843;52.062;4.508;2023-04-08T13:20:21;10.50;;;5.43;;
72728;SDS011;60843;52.062;4.508;2023-04-08T13:22:49;5.18;;;2.63;;
72728;SDS011;60843;52.062;4.508;2023-04-08T13:25:15;8.48;;;4.65;;
72728;SDS011;60843;52.062;4.508;2023-04-08T13:27:41;9.95;;;5.90;;
72728;SDS011;60843;52.062;4.508;2023-04-08T13:30:06;10.17;;;4.43;;
72728;SDS011;60843;52.062;4.508;2023-04-08T13:32:32;11.05;;;6.28;;
72728;SDS011;60843;52.062;4.508;2023-04-08T13:34:57;10.30;;;5.83;;
72728;SDS011;60843;52.062;4.508;2023-04-08T13:37:23;10.25;;;5.57;;
72728;SDS011;60843;52.062;4.508;2023-04-08T13:39:48;11.17;;;6.13;;
72728;SDS011;60843;52.062;4.508;2023-04-08T13:42:14;11.55;;;6.00;;
72728;SDS011;60843;52.062;4.508;2023-04-08T13:44:39;10.32;;;6.00;;
72728;SDS011;60843;52.062;4.508;2023-04-08T13:47:05;10.80;;;4.82;;
72728;SDS011;60843;52.062;4.508;2023-04-08T13:49:31;8.75;;;4.60;;
72728;SDS011;60843;52.062;4.508;2023-04-08T13:51:57;10.48;;;5.93;;
72728;SDS011;60843;52.062;4.508;2023-04-08T13:54:23;10.07;;;4.97;;
72728;SDS011;60843;52.062;4.508;2023-04-08T13:56:48;9.60;;;4.63;;
72728;SDS011;60843;52.062;4.508;2023-04-08T13:59:14;13.65;;;6.85;;
72728;SDS011;60843;52.062;4.508;2023-04-08T14:01:39;12.18;;;5.93;;
72728;SDS011;60843;52.062;4.508;2023-04-08T14:04:05;9.90;;;5.47;;
72728;SDS011;60843;52.062;4.508;2023-04-08T14:06:30;9.00;;;4.75;;
72728;SDS011;60843;52.062;4.508;2023-04-08T14:08:56;9.00;;;5.20;;
72728;SDS011;60843;52.062;4.508;2023-04-08T14:11:22;8.07;;;5.13;;
72728;SDS011;60843;52.062;4.508;2023-04-08T14:13:49;9.52;;;5.60;;
72728;SDS011;60843;52.062;4.508;2023-04-08T14:16:15;9.63;;;5.72;;
72728;SDS011;60843;52.062;4.508;2023-04-08T14:18:40;9.65;;;5.38;;
72728;SDS011;60843;52.062;4.508;2023-04-08T14:21:06;12.77;;;6.40;;
72728;SDS011;60843;52.062;4.508;2023-04-08T14:23:31;9.87;;;6.27;;
72728;SDS011;60843;52.062;4.508;2023-04-08T14:25:57;9.82;;;5.70;;
72728;SDS011;60843;52.062;4.508;2023-04-08T14:28:25;12.13;;;6.13;;
72728;SDS011;60843;52.062;4.508;2023-04-08T14:30:50;11.27;;;6.30;;
72728;SDS011;60843;52.062;4.508;2023-04-08T14:33:16;12.20;;;6.10;;
72728;SDS011;60843;52.062;4.508;2023-04-08T14:35:41;10.90;;;5.85;;
72728;SDS011;60843;52.062;4.508;2023-04-08T14:38:07;14.57;;;6.20;;
72728;SDS011;60843;52.062;4.508;2023-04-08T14:40:32;13.17;;;5.80;;
72728;SDS011;60843;52.062;4.508;2023-04-08T14:42:57;13.27;;;6.53;;
72728;SDS011;60843;52.062;4.508;2023-04-08T14:45:23;8.77;;;5.10;;
72728;SDS011;60843;52.062;4.508;2023-04-08T14:47:48;9.93;;;6.10;;
72728;SDS011;60843;52.062;4.508;2023-04-08T14:50:14;10.80;;;5.93;;
72728;SDS011;60843;52.062;4.508;2023-04-08T14:52:40;11.00;;;5.22;;
72728;SDS011;60843;52.062;4.508;2023-04-08T14:55:05;9.93;;;5.43;;
72728;SDS011;60843;52.062;4.508;2023-04-08T14:57:33;12.48;;;5.68;;
72728;SDS011;60843;52.062;4.508;2023-04-08T14:59:58;11.43;;;5.50;;
72728;SDS011;60843;52.062;4.508;2023-04-08T15:02:24;9.95;;;5.30;;
72728;SDS011;60843;52.062;4.508;2023-04-08T15:07:18;11.73;;;5.72;;
72728;SDS011;60843;52.062;4.508;2023-04-08T15:09:43;13.27;;;6.20;;
72728;SDS011;60843;52.062;4.508;2023-04-08T15:12:09;13.00;;;6.07;;